createdAt,value
2018-02-18T00:01:42.524Z,39.03
2018-02-18T00:04:10.336Z,38.40
2018-02-18T00:06:37.877Z,40.03
2018-02-18T00:09:05.414Z,37.70
2018-02-18T00:11:33.048Z,38.17
2018-02-18T00:14:00.594Z,39.57
2018-02-18T00:16:28.127Z,41.80
2018-02-18T00:18:55.727Z,42.20
2018-02-18T00:21:23.277Z,40.67
2018-02-18T00:23:50.827Z,42.77
2018-02-18T00:26:18.384Z,42.43
2018-02-18T00:28:45.917Z,42.27
2018-02-18T00:31:13.530Z,42.10
2018-02-18T00:33:41.076Z,42.00
2018-02-18T00:36:08.614Z,38.87
2018-02-18T00:38:36.342Z,42.33
2018-02-18T00:41:03.910Z,43.03
2018-02-18T00:43:31.466Z,44.60
2018-02-18T00:45:59.013Z,42.10
2018-02-18T00:48:26.613Z,41.23
2018-02-18T00:50:54.233Z,38.03
2018-02-18T00:53:21.784Z,42.57
2018-02-18T00:55:49.340Z,40.90
2018-02-18T00:58:16.895Z,39.47
2018-02-18T01:00:44.458Z,39.20
2018-02-18T01:03:12.011Z,42.20
2018-02-18T01:05:39.614Z,43.87
2018-02-18T01:08:07.183Z,46.23
2018-02-18T01:10:34.739Z,44.87
2018-02-18T01:13:02.315Z,44.87
2018-02-18T01:15:29.892Z,43.90
2018-02-18T01:17:57.450Z,48.73
2018-02-18T01:20:25.019Z,55.50
2018-02-18T01:22:52.547Z,50.70
2018-02-18T01:25:20.115Z,47.50
2018-02-18T01:27:47.659Z,46.40
2018-02-18T01:30:15.206Z,51.97
2018-02-18T01:32:42.840Z,49.80
2018-02-18T01:35:10.372Z,46.70
2018-02-18T01:37:37.927Z,46.30
2018-02-18T01:40:05.502Z,44.00
2018-02-18T01:42:33.072Z,53.00
2018-02-18T01:45:00.605Z,51.00
2018-02-18T01:47:28.189Z,54.80
2018-02-18T01:49:55.729Z,53.67
2018-02-18T01:52:23.251Z,52.03
2018-02-18T01:54:50.822Z,51.03
2018-02-18T01:57:18.455Z,48.40
2018-02-18T01:59:46.007Z,49.70
2018-02-18T02:02:13.547Z,49.20
2018-02-18T02:04:41.127Z,46.97
2018-02-18T02:07:08.665Z,49.10
2018-02-18T02:09:36.189Z,54.80
2018-02-18T02:12:03.786Z,50.33
2018-02-18T02:14:31.407Z,48.27
2018-02-18T02:16:58.978Z,48.00
2018-02-18T02:19:26.540Z,55.40
2018-02-18T02:21:54.117Z,54.70
2018-02-18T02:24:21.667Z,59.17
2018-02-18T02:26:49.188Z,55.80
2018-02-18T02:29:16.759Z,57.40
2018-02-18T02:31:44.310Z,54.93
2018-02-18T02:34:11.885Z,52.40
2018-02-18T02:36:39.439Z,56.27
2018-02-18T02:39:06.995Z,53.67
2018-02-18T02:41:34.542Z,51.00
2018-02-18T02:44:02.144Z,47.63
2018-02-18T02:46:29.677Z,49.50
2018-02-18T02:48:57.226Z,46.90
2018-02-18T02:51:24.838Z,48.90
2018-02-18T02:53:52.371Z,47.97
2018-02-18T02:56:20.024Z,50.50
2018-02-18T02:58:47.674Z,53.00
2018-02-18T03:01:15.236Z,47.93
2018-02-18T03:03:42.835Z,47.67
2018-02-18T03:06:10.501Z,49.73
2018-02-18T03:08:38.060Z,45.60
2018-02-18T03:11:05.607Z,48.53
2018-02-18T03:13:33.206Z,49.03
2018-02-18T03:16:00.750Z,46.70
2018-02-18T03:18:28.291Z,45.10
2018-02-18T03:20:55.839Z,48.77
2018-02-18T03:23:23.365Z,47.10
2018-02-18T03:25:50.944Z,49.27
2018-02-18T03:28:18.487Z,48.10
2018-02-18T03:30:46.032Z,46.63
2018-02-18T03:33:13.645Z,45.33
2018-02-18T03:35:41.213Z,50.10
2018-02-18T03:38:08.731Z,48.07
2018-02-18T03:40:36.331Z,46.30
2018-02-18T03:43:03.895Z,47.17
2018-02-18T03:45:31.442Z,43.87
2018-02-18T03:47:58.981Z,46.90
2018-02-18T03:50:26.581Z,46.17
2018-02-18T03:52:54.141Z,44.27
2018-02-18T03:55:21.671Z,45.33
2018-02-18T03:57:49.231Z,42.33
2018-02-18T04:00:16.813Z,44.80
2018-02-18T04:02:44.354Z,40.07
2018-02-18T04:05:11.927Z,38.00
2018-02-18T04:07:39.482Z,41.00
2018-02-18T04:10:07.021Z,43.80
2018-02-18T04:12:34.771Z,43.30
2018-02-18T04:15:02.338Z,41.10
2018-02-18T04:17:29.878Z,40.70
2018-02-18T04:19:57.481Z,41.90
2018-02-18T04:22:25.034Z,40.17
2018-02-18T04:24:52.633Z,37.40
2018-02-18T04:27:20.192Z,38.10
2018-02-18T04:29:47.748Z,39.60
2018-02-18T04:32:15.286Z,37.80
2018-02-18T04:34:42.836Z,42.40
2018-02-18T04:37:10.387Z,36.80
2018-02-18T04:39:37.979Z,39.30
2018-02-18T04:42:05.522Z,39.13
2018-02-18T04:44:33.082Z,35.40
2018-02-18T04:47:00.631Z,36.40
2018-02-18T04:49:28.188Z,38.50
2018-02-18T04:51:55.833Z,37.03
2018-02-18T04:54:23.396Z,39.83
2018-02-18T04:56:50.966Z,38.17
2018-02-18T04:59:18.527Z,37.10
2018-02-18T05:01:46.052Z,38.90
2018-02-18T05:04:13.748Z,37.47
2018-02-18T05:06:41.306Z,38.50
2018-02-18T05:09:08.907Z,37.97
2018-02-18T05:11:36.435Z,36.17
2018-02-18T05:14:03.993Z,38.43
2018-02-18T05:16:31.600Z,36.10
2018-02-18T05:18:59.147Z,37.57
2018-02-18T05:21:26.711Z,36.30
2018-02-18T05:23:54.314Z,36.27
2018-02-18T05:26:21.875Z,35.30
2018-02-18T05:28:49.412Z,35.77
2018-02-18T05:31:16.984Z,35.40
2018-02-18T05:33:44.578Z,33.37
2018-02-18T05:36:12.136Z,33.00
2018-02-18T05:38:39.744Z,30.53
2018-02-18T05:41:08.226Z,31.97
2018-02-18T05:43:35.788Z,32.77
2018-02-18T05:46:03.381Z,30.17
2018-02-18T05:48:30.911Z,30.83
2018-02-18T05:50:58.506Z,28.67
2018-02-18T05:53:26.103Z,31.20
2018-02-18T05:55:53.647Z,30.17
2018-02-18T05:58:21.185Z,31.50
2018-02-18T06:00:48.752Z,32.23
2018-02-18T06:03:16.296Z,32.37
2018-02-18T06:05:43.898Z,31.97
2018-02-18T06:08:11.455Z,29.47
2018-02-18T06:10:39.012Z,31.77
2018-02-18T06:13:06.598Z,31.23
2018-02-18T06:15:34.176Z,28.80
2018-02-18T06:18:01.710Z,30.50
2018-02-18T06:20:29.242Z,29.00
2018-02-18T06:22:56.787Z,28.00
2018-02-18T06:25:24.541Z,28.50
2018-02-18T06:27:52.167Z,26.67
2018-02-18T06:30:19.703Z,27.27
2018-02-18T06:32:47.300Z,27.40
2018-02-18T06:35:14.857Z,26.57
2018-02-18T06:37:42.413Z,25.40
2018-02-18T06:40:10.045Z,27.20
2018-02-18T06:42:37.713Z,27.90
2018-02-18T06:45:05.259Z,26.47
2018-02-18T06:47:32.836Z,28.00
2018-02-18T06:50:00.385Z,27.40
2018-02-18T06:52:27.945Z,26.00
2018-02-18T06:54:55.522Z,26.27
2018-02-18T06:57:23.068Z,25.80
2018-02-18T06:59:50.708Z,27.40
2018-02-18T07:02:18.255Z,26.57
2018-02-18T07:04:45.798Z,28.20
2018-02-18T07:07:13.378Z,30.53
2018-02-18T07:09:40.929Z,28.30
2018-02-18T07:12:08.525Z,24.37
2018-02-18T07:14:36.075Z,23.03
2018-02-18T07:17:03.604Z,24.70
2018-02-18T07:19:31.172Z,26.37
2018-02-18T07:21:58.724Z,26.47
2018-02-18T07:24:26.260Z,24.80
2018-02-18T07:26:53.827Z,29.00
2018-02-18T07:29:21.407Z,29.87
2018-02-18T07:31:48.970Z,29.20
2018-02-18T07:34:17.546Z,27.13
2018-02-18T07:36:45.495Z,29.00
2018-02-18T07:39:13.026Z,27.80
2018-02-18T07:41:40.575Z,31.20
2018-02-18T07:44:08.148Z,31.30
2018-02-18T07:46:35.667Z,29.43
2018-02-18T07:49:03.244Z,33.03
2018-02-18T07:51:30.795Z,29.50
2018-02-18T07:53:58.389Z,32.80
2018-02-18T07:56:25.967Z,36.00
2018-02-18T07:58:53.516Z,34.20
2018-02-18T08:01:21.107Z,35.67
2018-02-18T08:03:48.688Z,32.67
2018-02-18T08:06:16.264Z,32.90
2018-02-18T08:08:43.800Z,31.80
2018-02-18T08:11:11.413Z,32.43
2018-02-18T08:13:38.970Z,32.90
2018-02-18T08:16:06.498Z,33.60
2018-02-18T08:18:34.066Z,31.53
2018-02-18T08:21:01.628Z,30.37
2018-02-18T08:23:29.225Z,31.80
2018-02-18T08:25:56.763Z,29.67
2018-02-18T08:28:24.313Z,29.57
2018-02-18T08:30:51.868Z,31.43
2018-02-18T08:33:19.436Z,31.23
2018-02-18T08:35:46.964Z,30.50
2018-02-18T08:38:14.685Z,27.63
2018-02-18T08:40:42.219Z,30.20
2018-02-18T08:43:09.767Z,28.67
2018-02-18T08:45:37.388Z,28.50
2018-02-18T08:48:04.932Z,31.77
2018-02-18T08:50:32.513Z,27.77
2018-02-18T08:53:00.434Z,27.73
2018-02-18T08:55:28.022Z,25.90
2018-02-18T08:57:55.611Z,27.00
2018-02-18T09:00:23.145Z,26.97
2018-02-18T09:02:50.742Z,28.60
2018-02-18T09:05:18.331Z,26.37
2018-02-18T09:07:45.851Z,25.87
2018-02-18T09:10:13.424Z,27.50
2018-02-18T09:12:41.011Z,26.30
2018-02-18T09:15:08.565Z,27.93
2018-02-18T09:17:36.102Z,26.23
2018-02-18T09:20:03.661Z,25.50
2018-02-18T09:22:31.206Z,27.77
2018-02-18T09:24:58.792Z,27.00
2018-02-18T09:27:26.318Z,27.80
2018-02-18T09:29:53.833Z,28.10
2018-02-18T09:32:21.399Z,27.33
2018-02-18T09:34:48.987Z,27.20
2018-02-18T09:37:16.528Z,26.57
2018-02-18T09:39:44.052Z,25.07
2018-02-18T09:42:11.616Z,24.53
2018-02-18T09:44:39.160Z,25.50
2018-02-18T09:47:06.684Z,29.30
2018-02-18T09:49:34.266Z,24.80
2018-02-18T09:52:01.793Z,26.10
2018-02-18T09:54:29.316Z,22.83
2018-02-18T09:56:56.868Z,23.50
2018-02-18T09:59:24.398Z,22.77
2018-02-18T10:01:51.945Z,23.27
2018-02-18T10:04:19.510Z,24.13
2018-02-18T10:06:47.077Z,22.17
2018-02-18T10:09:14.630Z,20.87
2018-02-18T10:11:42.191Z,24.80
2018-02-18T10:14:09.757Z,22.90
2018-02-18T10:16:37.297Z,23.90
2018-02-18T10:19:04.893Z,22.17
2018-02-18T10:21:32.431Z,24.00
2018-02-18T10:24:00.037Z,22.20
2018-02-18T10:26:27.617Z,24.90
2018-02-18T10:28:55.127Z,20.90
2018-02-18T10:31:22.667Z,22.60
2018-02-18T10:33:50.300Z,21.50
2018-02-18T10:36:17.869Z,23.57
2018-02-18T10:38:45.606Z,22.33
2018-02-18T10:41:13.171Z,24.60
2018-02-18T10:43:40.828Z,23.30
2018-02-18T10:46:08.436Z,22.77
2018-02-18T10:48:35.974Z,25.27
2018-02-18T10:51:03.515Z,24.00
2018-02-18T10:53:31.131Z,23.80
2018-02-18T10:55:58.689Z,24.07
2018-02-18T10:58:26.207Z,25.60
2018-02-18T11:00:53.842Z,24.70
2018-02-18T11:03:21.363Z,23.23
2018-02-18T11:05:49.139Z,22.03
2018-02-18T11:08:16.665Z,22.77
2018-02-18T11:10:44.206Z,21.70
2018-02-18T11:13:11.785Z,21.70
2018-02-18T11:15:39.305Z,22.47
2018-02-18T11:18:06.820Z,25.50
2018-02-18T11:20:34.375Z,21.50
2018-02-18T11:23:01.951Z,20.93
2018-02-18T11:25:29.483Z,22.90
2018-02-18T11:27:57.081Z,21.33
2018-02-18T11:30:24.634Z,23.10
2018-02-18T11:32:52.254Z,24.43
2018-02-18T11:35:19.804Z,21.07
2018-02-18T11:37:47.335Z,23.07
2018-02-18T11:40:14.935Z,22.67
2018-02-18T11:42:42.557Z,22.47
2018-02-18T11:45:10.090Z,23.87
2018-02-18T11:47:37.654Z,23.97
2018-02-18T11:50:05.216Z,24.93
2018-02-18T11:52:32.794Z,24.43
2018-02-18T11:55:00.337Z,23.80
2018-02-18T11:57:27.875Z,23.60
2018-02-18T11:59:55.453Z,22.87
2018-02-18T12:02:23.063Z,22.90
2018-02-18T12:04:50.584Z,22.53
2018-02-18T12:07:18.148Z,23.57
2018-02-18T12:09:45.754Z,23.17
2018-02-18T12:12:13.292Z,24.53
2018-02-18T12:14:40.841Z,22.07
2018-02-18T12:17:08.421Z,21.23
2018-02-18T12:19:36.091Z,21.90
2018-02-18T12:22:03.697Z,22.77
2018-02-18T12:24:31.355Z,20.20
2018-02-18T12:26:58.882Z,21.83
2018-02-18T12:29:26.414Z,21.60
2018-02-18T12:31:54.007Z,20.93
2018-02-18T12:34:21.534Z,20.23
2018-02-18T12:36:49.066Z,21.70
2018-02-18T12:39:16.644Z,21.93
2018-02-18T12:41:44.166Z,20.90
2018-02-18T12:44:11.724Z,22.13
2018-02-18T12:46:39.277Z,20.90
2018-02-18T12:49:06.800Z,20.00
2018-02-18T12:51:34.422Z,20.00
2018-02-18T12:54:01.987Z,18.77
2018-02-18T12:56:29.544Z,21.37
2018-02-18T12:58:57.197Z,20.90
2018-02-18T13:01:26.594Z,21.77
2018-02-18T13:03:54.864Z,23.23
2018-02-18T13:06:22.498Z,19.00
2018-02-18T13:08:50.020Z,20.93
2018-02-18T13:11:17.587Z,19.40
2018-02-18T13:13:45.165Z,22.43
2018-02-18T13:16:12.736Z,24.93
2018-02-18T13:18:40.276Z,20.73
2018-02-18T13:21:07.834Z,19.70
2018-02-18T13:23:35.379Z,28.70
2018-02-18T13:26:02.947Z,24.20
2018-02-18T13:28:30.492Z,27.07
2018-02-18T13:30:58.119Z,33.20
2018-02-18T13:33:25.690Z,29.63
2018-02-18T13:35:53.232Z,21.83
2018-02-18T13:38:20.783Z,22.10
2018-02-18T13:40:48.444Z,20.17
2018-02-18T13:43:16.005Z,22.97
2018-02-18T13:45:43.573Z,25.47
2018-02-18T13:48:11.106Z,23.53
2018-02-18T13:50:38.678Z,23.90
2018-02-18T13:53:06.382Z,22.43
2018-02-18T13:55:34.055Z,26.57
2018-02-18T13:58:01.680Z,21.87
2018-02-18T14:00:29.285Z,22.87
2018-02-18T14:02:56.828Z,22.20
2018-02-18T14:05:24.376Z,24.33
2018-02-18T14:07:51.935Z,22.30
2018-02-18T14:10:19.482Z,21.30
2018-02-18T14:12:47.043Z,21.57
2018-02-18T14:15:14.654Z,21.40
2018-02-18T14:17:42.199Z,21.20
2018-02-18T14:20:09.769Z,21.47
2018-02-18T14:22:37.417Z,21.93
2018-02-18T14:25:04.991Z,23.10
2018-02-18T14:27:32.540Z,21.23
2018-02-18T14:30:00.137Z,21.23
2018-02-18T14:32:27.686Z,21.20
2018-02-18T14:34:55.213Z,21.27
2018-02-18T14:37:22.903Z,20.63
2018-02-18T14:39:50.462Z,20.90
2018-02-18T14:42:29.847Z,22.30
2018-02-18T14:45:09.409Z,22.87
2018-02-18T14:47:48.813Z,20.70
2018-02-18T14:50:28.189Z,21.53
2018-02-18T14:53:07.593Z,20.40
2018-02-18T14:58:36.963Z,22.13
2018-02-18T15:01:04.688Z,20.90
2018-02-18T15:03:32.271Z,24.07
2018-02-18T15:05:59.888Z,21.50
2018-02-18T15:08:27.420Z,30.23
2018-02-18T15:10:55.072Z,21.93
2018-02-18T15:13:22.651Z,23.63
2018-02-18T15:15:50.210Z,25.10
2018-02-18T15:18:17.825Z,20.13
2018-02-18T15:20:45.389Z,22.47
2018-02-18T15:23:13.044Z,21.70
2018-02-18T15:25:40.581Z,22.60
2018-02-18T15:28:08.476Z,22.37
2018-02-18T15:30:36.171Z,21.40
2018-02-18T15:33:03.745Z,19.93
2018-02-18T15:35:31.284Z,21.47
2018-02-18T15:37:59.038Z,20.90
2018-02-18T15:40:26.619Z,21.77
2018-02-18T15:42:54.176Z,21.77
2018-02-18T15:45:21.712Z,21.63
2018-02-18T15:47:49.333Z,22.07
2018-02-18T15:50:16.887Z,22.10
2018-02-18T15:52:44.456Z,23.37
2018-02-18T15:55:12.003Z,31.90
2018-02-18T15:57:39.774Z,34.27
2018-02-18T16:00:07.415Z,24.20
2018-02-18T16:02:35.012Z,23.27
2018-02-18T16:05:02.582Z,27.13
2018-02-18T16:07:30.143Z,24.07
2018-02-18T16:09:57.733Z,23.70
2018-02-18T16:12:25.268Z,22.80
2018-02-18T16:14:52.877Z,22.90
2018-02-18T16:17:20.454Z,23.53
2018-02-18T16:19:48.058Z,22.90
2018-02-18T16:22:15.781Z,23.30
2018-02-18T16:24:43.411Z,24.30
2018-02-18T16:27:10.979Z,21.33
2018-02-18T16:29:38.519Z,25.20
2018-02-18T16:32:06.511Z,33.50
2018-02-18T16:34:34.110Z,42.00
2018-02-18T16:37:01.681Z,41.93
2018-02-18T16:39:29.249Z,27.80
2018-02-18T16:41:56.790Z,32.93
2018-02-18T16:44:24.405Z,30.93
2018-02-18T16:46:51.943Z,30.20
2018-02-18T16:49:19.459Z,25.80
2018-02-18T16:51:47.142Z,25.70
2018-02-18T16:54:14.724Z,24.37
2018-02-18T16:56:42.322Z,23.13
2018-02-18T16:59:09.867Z,25.10
2018-02-18T17:01:37.399Z,23.90
2018-02-18T17:04:04.987Z,25.27
2018-02-18T17:06:32.572Z,24.17
2018-02-18T17:09:00.462Z,25.17
2018-02-18T17:11:28.037Z,26.07
2018-02-18T17:13:55.667Z,26.27
2018-02-18T17:16:23.300Z,29.87
2018-02-18T17:18:50.921Z,28.67
2018-02-18T17:21:18.539Z,26.57
2018-02-18T17:23:46.170Z,27.60
2018-02-18T17:26:13.744Z,28.10
2018-02-18T17:28:41.323Z,27.27
2018-02-18T17:31:08.860Z,28.40
2018-02-18T17:33:36.406Z,25.67
2018-02-18T17:36:03.981Z,28.53
2018-02-18T17:38:31.521Z,25.10
2018-02-18T17:40:59.040Z,26.77
2018-02-18T17:43:26.594Z,27.13
2018-02-18T17:45:54.328Z,26.77
2018-02-18T17:48:21.903Z,27.47
2018-02-18T17:50:49.469Z,28.67
2018-02-18T17:53:17.001Z,27.00
2018-02-18T17:55:44.559Z,27.77
2018-02-18T17:58:12.087Z,29.77
2018-02-18T18:00:39.647Z,34.17
2018-02-18T18:03:07.214Z,31.27
2018-02-18T18:05:34.730Z,28.20
2018-02-18T18:08:02.282Z,29.57
2018-02-18T18:10:29.961Z,31.70
2018-02-18T18:12:57.516Z,28.97
2018-02-18T18:15:25.053Z,31.87
2018-02-18T18:17:52.656Z,32.60
2018-02-18T18:20:20.195Z,30.57
2018-02-18T18:22:47.809Z,27.97
2018-02-18T18:25:15.359Z,31.60
2018-02-18T18:27:42.901Z,31.17
2018-02-18T18:30:10.477Z,31.93
2018-02-18T18:32:38.056Z,32.50
2018-02-18T18:35:05.800Z,31.00
2018-02-18T18:37:33.349Z,31.73
2018-02-18T18:40:00.961Z,30.83
2018-02-18T18:42:28.524Z,31.80
2018-02-18T18:44:56.820Z,32.07
2018-02-18T18:47:25.057Z,31.93
2018-02-18T18:49:52.671Z,32.07
2018-02-18T18:52:20.191Z,31.50
2018-02-18T18:54:47.763Z,32.80
2018-02-18T18:57:15.361Z,32.93
2018-02-18T18:59:42.942Z,32.67
2018-02-18T19:02:10.483Z,31.13
2018-02-18T19:04:38.075Z,32.57
2018-02-18T19:07:05.629Z,32.73
2018-02-18T19:09:33.198Z,31.30
2018-02-18T19:12:00.859Z,34.67
2018-02-18T19:14:28.494Z,40.50
2018-02-18T19:16:56.081Z,34.50
2018-02-18T19:19:23.659Z,34.37
2018-02-18T19:21:51.184Z,36.73
2018-02-18T19:24:18.710Z,31.57
2018-02-18T19:26:46.272Z,36.23
2018-02-18T19:29:13.827Z,30.67
2018-02-18T19:31:41.381Z,32.43
2018-02-18T19:34:08.956Z,36.93
2018-02-18T19:36:36.503Z,36.03
2018-02-18T19:39:04.116Z,34.50
2018-02-18T19:41:31.647Z,34.00
2018-02-18T19:43:59.216Z,35.70
2018-02-18T19:46:27.323Z,35.43
2018-02-18T19:48:54.915Z,35.23
2018-02-18T19:51:22.508Z,35.33
2018-02-18T19:53:50.995Z,36.10
2018-02-18T19:56:18.575Z,35.20
2018-02-18T19:58:46.170Z,37.83
2018-02-18T20:01:13.692Z,35.10
2018-02-18T20:03:41.274Z,35.17
2018-02-18T20:06:08.877Z,34.20
2018-02-18T20:08:36.445Z,35.00
2018-02-18T20:11:03.988Z,36.70
2018-02-18T20:13:31.590Z,33.73
2018-02-18T20:15:59.160Z,33.67
2018-02-18T20:18:26.697Z,36.70
2018-02-18T20:20:54.286Z,34.33
2018-02-18T20:23:21.851Z,35.57
2018-02-18T20:25:49.389Z,35.10
2018-02-18T20:28:16.931Z,36.17
2018-02-18T20:30:44.496Z,36.87
2018-02-18T20:33:12.116Z,36.17
2018-02-18T20:35:39.653Z,34.87
2018-02-18T20:38:07.180Z,34.40
2018-02-18T20:40:34.780Z,35.40
2018-02-18T20:43:02.327Z,35.33
2018-02-18T20:45:29.863Z,34.30
2018-02-18T20:47:57.512Z,35.80
2018-02-18T20:50:25.041Z,40.38
2018-02-18T20:52:52.576Z,36.60
2018-02-18T20:55:20.116Z,34.70
2018-02-18T20:57:47.659Z,34.30
2018-02-18T21:00:15.505Z,36.20
2018-02-18T21:02:43.210Z,33.27
2018-02-18T21:05:10.748Z,35.77
2018-02-18T21:07:38.338Z,35.40
2018-02-18T21:10:05.879Z,32.57
2018-02-18T21:12:33.444Z,34.60
2018-02-18T21:15:01.048Z,36.10
2018-02-18T21:17:28.600Z,34.03
2018-02-18T21:19:56.152Z,36.50
2018-02-18T21:22:23.730Z,34.60
2018-02-18T21:24:51.256Z,34.00
2018-02-18T21:27:18.847Z,33.90
2018-02-18T21:29:46.379Z,35.03
2018-02-18T21:32:13.929Z,33.00
2018-02-18T21:34:42.378Z,34.57
2018-02-18T21:37:09.972Z,35.97
2018-02-18T21:39:37.523Z,35.60
2018-02-18T21:42:05.107Z,34.13
2018-02-18T21:44:32.646Z,33.57
2018-02-18T21:47:00.181Z,34.90
2018-02-18T21:49:27.762Z,34.17
2018-02-18T21:51:55.316Z,34.47
2018-02-18T21:54:22.882Z,32.43
2018-02-18T21:56:50.419Z,36.50
2018-02-18T21:59:18.067Z,35.77
2018-02-18T22:01:45.621Z,35.60
2018-02-18T22:04:13.145Z,33.50
2018-02-18T22:06:40.745Z,32.20
2018-02-18T22:09:08.233Z,34.90
2018-02-18T22:11:35.789Z,33.50
2018-02-18T22:14:03.329Z,33.97
2018-02-18T22:16:30.875Z,31.40
2018-02-18T22:18:58.423Z,33.03
2018-02-18T22:21:25.994Z,34.47
2018-02-18T22:23:53.557Z,29.90
2018-02-18T22:26:21.102Z,33.87
2018-02-18T22:28:48.673Z,32.00
2018-02-18T22:31:16.239Z,33.20
2018-02-18T22:33:43.768Z,31.60
2018-02-18T22:36:11.340Z,31.60
2018-02-18T22:38:38.941Z,33.57
2018-02-18T22:41:06.503Z,30.97
2018-02-18T22:43:34.031Z,31.73
2018-02-18T22:46:01.576Z,29.50
2018-02-18T22:48:29.102Z,30.20
2018-02-18T22:50:56.683Z,28.50
2018-02-18T22:53:24.214Z,29.70
2018-02-18T22:55:51.750Z,30.50
2018-02-18T22:58:19.319Z,28.43
2018-02-18T23:00:47.023Z,27.90
2018-02-18T23:03:14.539Z,26.30
2018-02-18T23:05:47.756Z,29.17
2018-02-18T23:08:15.338Z,25.50
2018-02-18T23:10:42.867Z,27.40
2018-02-18T23:13:10.432Z,26.17
2018-02-18T23:15:37.963Z,25.30
2018-02-18T23:18:05.562Z,29.40
2018-02-18T23:20:44.906Z,25.60
2018-02-18T23:23:12.459Z,26.53
2018-02-18T23:25:40.036Z,26.73
2018-02-18T23:28:07.577Z,26.50
2018-02-18T23:30:35.104Z,27.40
2018-02-18T23:33:02.669Z,28.50
2018-02-18T23:35:30.203Z,24.80
2018-02-18T23:37:57.719Z,25.77
2018-02-18T23:40:25.292Z,25.40
2018-02-18T23:42:52.812Z,26.80
2018-02-18T23:45:21.190Z,26.87
2018-02-18T23:47:48.918Z,25.07
2018-02-18T23:50:16.454Z,23.47
2018-02-18T23:52:43.994Z,27.57
2018-02-18T23:55:11.551Z,26.83
2018-02-18T23:57:39.091Z,26.47
